createdAt,value
2022-11-14T00:02:00.999Z,101178.03
2022-11-14T00:04:29.546Z,101166.97
2022-11-14T00:06:55.516Z,101173.63
2022-11-14T00:09:24.228Z,101172.50
2022-11-14T00:11:49.780Z,101174.44
2022-11-14T00:14:15.324Z,101177.19
2022-11-14T00:16:40.899Z,101178.03
2022-11-14T00:19:06.436Z,101173.63
2022-11-14T00:21:31.983Z,101166.97
2022-11-14T00:23:57.528Z,101166.97
2022-11-14T00:26:23.088Z,101166.97
2022-11-14T00:28:48.631Z,101157.84
2022-11-14T00:31:14.187Z,101157.84
2022-11-14T00:33:39.734Z,101164.47
2022-11-14T00:36:05.412Z,101164.19
2022-11-14T00:38:31.324Z,101161.44
2022-11-14T00:40:57.090Z,101163.38
2022-11-14T00:43:22.640Z,101161.44
2022-11-14T00:45:48.185Z,101160.63
2022-11-14T00:48:13.965Z,101152.31
2022-11-14T00:50:39.809Z,101157.03
2022-11-14T00:53:05.361Z,101144.84
2022-11-14T00:55:30.897Z,101137.69
2022-11-14T00:57:56.446Z,101146.78
2022-11-14T01:00:21.998Z,101134.91
2022-11-14T01:02:47.555Z,101137.69
2022-11-14T01:05:13.094Z,101132.97
2022-11-14T01:07:38.645Z,101132.97
2022-11-14T01:10:04.344Z,101130.22
2022-11-14T01:12:29.902Z,101122.75
2022-11-14T01:14:55.445Z,101122.16
2022-11-14T01:17:20.996Z,101118.31
2022-11-14T01:19:46.537Z,101120.22
2022-11-14T01:22:12.090Z,101110.84
2022-11-14T01:24:37.632Z,101109.19
2022-11-14T01:27:03.239Z,101107.28
2022-11-14T01:29:28.869Z,101098.13
2022-11-14T01:31:54.588Z,101091.75
2022-11-14T01:34:20.170Z,101095.34
2022-11-14T01:36:45.725Z,101095.34
2022-11-14T01:39:11.272Z,101091.50
2022-11-14T01:41:36.826Z,101093.44
2022-11-14T01:44:02.365Z,101082.38
2022-11-14T01:46:29.946Z,101077.69
2022-11-14T01:48:56.660Z,101078.78
2022-11-14T01:51:25.098Z,101069.38
2022-11-14T01:53:51.423Z,101072.41
2022-11-14T01:56:18.042Z,101065.81
2022-11-14T01:58:44.398Z,101072.16
2022-11-14T02:01:10.005Z,101069.66
2022-11-14T02:03:36.861Z,101062.19
2022-11-14T02:06:02.439Z,101064.94
2022-11-14T02:08:28.248Z,101060.28
2022-11-14T02:10:54.010Z,101069.38
2022-11-14T02:13:19.549Z,101064.94
2022-11-14T02:15:45.101Z,101072.16
2022-11-14T02:18:11.562Z,101064.13
2022-11-14T02:20:37.709Z,101068.56
2022-11-14T02:23:03.473Z,101070.47
2022-11-14T02:25:29.015Z,101075.19
2022-11-14T02:27:54.572Z,101069.38
2022-11-14T02:30:20.732Z,101063.03
2022-11-14T02:35:31.804Z,101056.66
2022-11-14T02:37:57.353Z,101045.59
2022-11-14T02:40:22.914Z,101051.13
2022-11-14T02:42:48.453Z,101044.78
2022-11-14T02:45:14.007Z,101038.16
2022-11-14T02:47:39.556Z,101040.91
2022-11-14T02:50:05.179Z,101036.47
2022-11-14T02:52:30.727Z,101030.94
2022-11-14T02:54:56.270Z,101031.78
2022-11-14T02:57:21.822Z,101031.78
2022-11-14T02:59:47.365Z,101027.38
2022-11-14T03:02:13.502Z,101025.44
2022-11-14T03:04:39.046Z,101019.06
2022-11-14T03:07:04.636Z,101027.09
2022-11-14T03:09:30.186Z,101017.13
2022-11-14T03:11:55.743Z,101023.47
2022-11-14T03:14:21.286Z,101019.91
2022-11-14T03:16:46.838Z,101020.72
2022-11-14T03:19:12.557Z,101015.19
2022-11-14T03:21:38.109Z,101010.78
2022-11-14T03:24:03.669Z,101018.25
2022-11-14T03:26:29.230Z,101012.72
2022-11-14T03:28:54.780Z,101008.84
2022-11-14T03:31:20.334Z,101008.84
2022-11-14T03:33:45.878Z,101004.44
2022-11-14T03:36:11.432Z,100991.72
2022-11-14T03:38:37.014Z,101008.84
2022-11-14T03:41:02.602Z,100996.97
2022-11-14T03:43:30.243Z,100991.44
2022-11-14T03:45:57.371Z,100994.19
2022-11-14T03:48:22.946Z,100996.97
2022-11-14T03:50:48.742Z,100994.19
2022-11-14T03:53:14.337Z,100995.00
2022-11-14T03:55:39.890Z,100993.38
2022-11-14T03:58:05.435Z,100999.72
2022-11-14T04:00:31.026Z,100999.72
2022-11-14T04:02:56.815Z,100994.19
2022-11-14T04:05:22.531Z,100991.44
2022-11-14T04:07:48.069Z,100996.97
2022-11-14T04:10:13.622Z,100985.06
2022-11-14T04:12:39.175Z,100982.31
2022-11-14T04:15:04.861Z,100980.66
2022-11-14T04:17:31.287Z,100977.91
2022-11-14T04:19:59.046Z,100977.59
2022-11-14T04:22:24.596Z,100970.44
2022-11-14T04:24:50.166Z,100971.25
2022-11-14T04:27:15.749Z,100971.25
2022-11-14T04:29:41.298Z,100968.50
2022-11-14T04:32:06.846Z,100976.78
2022-11-14T04:34:32.528Z,100977.59
2022-11-14T04:36:58.070Z,100976.78
2022-11-14T04:39:23.622Z,100973.19
2022-11-14T04:41:49.194Z,100968.50
2022-11-14T04:44:14.746Z,100975.97
2022-11-14T04:46:40.285Z,100969.63
2022-11-14T04:49:05.839Z,100971.25
2022-11-14T04:51:31.385Z,100968.50
2022-11-14T04:53:56.954Z,100966.84
2022-11-14T04:56:24.503Z,100967.66
2022-11-14T04:58:50.045Z,100966.03
2022-11-14T05:01:15.648Z,100972.38
2022-11-14T05:03:41.195Z,100972.38
2022-11-14T05:06:06.830Z,100964.91
2022-11-14T05:08:33.065Z,100966.84
2022-11-14T05:10:58.759Z,100962.13
2022-11-14T05:13:24.298Z,100959.38
2022-11-14T05:15:49.849Z,100959.38
2022-11-14T05:18:15.396Z,100953.03
2022-11-14T05:20:40.952Z,100950.25
2022-11-14T05:23:06.490Z,100941.16
2022-11-14T05:25:32.068Z,100947.50
2022-11-14T05:27:57.610Z,100945.56
2022-11-14T05:30:23.166Z,100937.56
2022-11-14T05:32:50.414Z,100943.91
2022-11-14T05:35:15.966Z,100941.16
2022-11-14T05:37:41.510Z,100937.25
2022-11-14T05:40:07.273Z,100926.50
2022-11-14T05:42:32.809Z,100924.56
2022-11-14T05:44:58.359Z,100921.78
2022-11-14T05:47:23.903Z,100918.22
2022-11-14T05:49:49.456Z,100914.63
2022-11-14T05:52:14.997Z,100917.09
2022-11-14T05:54:40.552Z,100913.50
2022-11-14T05:57:06.100Z,100917.09
2022-11-14T05:59:31.655Z,100917.09
2022-11-14T06:01:57.295Z,100906.03
2022-11-14T06:04:22.876Z,100907.16
2022-11-14T06:06:48.436Z,100904.38
2022-11-14T06:09:14.052Z,100912.69
2022-11-14T06:11:39.621Z,100904.66
2022-11-14T06:14:10.449Z,100908.25
2022-11-14T06:16:36.628Z,100908.25
2022-11-14T06:19:02.180Z,100908.81
2022-11-14T06:21:27.738Z,100910.75
2022-11-14T06:23:53.282Z,100903.00
2022-11-14T06:26:20.130Z,100914.06
2022-11-14T06:28:45.882Z,100910.78
2022-11-14T06:31:11.434Z,100906.91
2022-11-14T06:33:36.999Z,100905.25
2022-11-14T06:36:04.243Z,100900.25
2022-11-14T06:38:30.196Z,100905.78
2022-11-14T06:41:13.120Z,100908.53
2022-11-14T06:43:39.339Z,100908.53
2022-11-14T06:46:05.075Z,100913.53
2022-11-14T06:48:30.986Z,100913.53
2022-11-14T06:50:57.115Z,100910.78
2022-11-14T06:53:22.899Z,100919.91
2022-11-14T06:55:53.069Z,100914.06
2022-11-14T06:58:18.617Z,100911.34
2022-11-14T07:00:44.185Z,100913.53
2022-11-14T07:03:09.852Z,100918.22
2022-11-14T07:05:35.444Z,100923.22
2022-11-14T07:08:00.983Z,100928.75
2022-11-14T07:10:26.534Z,100925.97
2022-11-14T07:12:52.096Z,100920.47
2022-11-14T07:15:17.652Z,100930.13
2022-11-14T07:17:43.198Z,100930.13
2022-11-14T07:20:08.966Z,100922.66
2022-11-14T07:22:34.509Z,100919.91
2022-11-14T07:25:00.078Z,100922.66
2022-11-14T07:27:25.619Z,100936.47
2022-11-14T07:29:51.176Z,100934.53
2022-11-14T07:32:16.719Z,100934.94
2022-11-14T07:34:42.276Z,100925.47
2022-11-14T07:37:07.981Z,100929.56
2022-11-14T07:39:33.556Z,100937.56
2022-11-14T07:41:59.096Z,100934.81
2022-11-14T07:44:24.657Z,100942.81
2022-11-14T07:46:51.160Z,100942.53
2022-11-14T07:49:16.714Z,100935.34
2022-11-14T07:51:42.271Z,100939.75
2022-11-14T07:54:10.035Z,100932.28
2022-11-14T07:56:35.575Z,100942.81
2022-11-14T07:59:01.135Z,100939.88
2022-11-14T08:01:26.741Z,100931.25
2022-11-14T08:03:52.327Z,100927.38
2022-11-14T08:06:17.866Z,100932.28
2022-11-14T08:08:43.435Z,100928.16
2022-11-14T08:11:09.283Z,100927.03
2022-11-14T08:13:34.829Z,100927.50
2022-11-14T08:16:07.930Z,100930.16
2022-11-14T08:18:37.727Z,100927.06
2022-11-14T08:21:03.625Z,100927.03
2022-11-14T08:23:29.170Z,100925.09
2022-11-14T08:25:54.721Z,100932.25
2022-11-14T08:28:20.268Z,100920.13
2022-11-14T08:30:45.819Z,100913.47
2022-11-14T08:33:11.364Z,100898.81
2022-11-14T08:35:36.921Z,100904.88
2022-11-14T08:38:02.491Z,100898.53
2022-11-14T08:40:28.234Z,100904.88
2022-11-14T08:43:01.478Z,100899.91
2022-11-14T08:45:27.710Z,100904.59
2022-11-14T08:47:53.402Z,100902.66
2022-11-14T08:50:18.959Z,100895.19
2022-11-14T08:52:48.447Z,100885.25
2022-11-14T08:55:14.010Z,100888.84
2022-11-14T08:57:39.557Z,100892.44
2022-11-14T09:00:05.374Z,100894.06
2022-11-14T09:02:30.916Z,100898.47
2022-11-14T09:04:56.560Z,100893.78
2022-11-14T09:07:22.213Z,100896.53
2022-11-14T09:09:47.794Z,100899.31
2022-11-14T09:12:13.354Z,100899.03
2022-11-14T09:14:38.925Z,100900.69
2022-11-14T09:17:06.099Z,100898.75
2022-11-14T09:19:31.899Z,100907.03
2022-11-14T09:21:57.441Z,100907.84
2022-11-14T09:24:23.002Z,100903.44
2022-11-14T09:26:55.269Z,100904.28
2022-11-14T09:29:22.514Z,100898.75
2022-11-14T09:31:48.140Z,100907.97
2022-11-14T09:34:13.829Z,100902.06
2022-11-14T09:36:39.424Z,100902.88
2022-11-14T09:39:04.982Z,100906.47
2022-11-14T09:41:38.433Z,100906.16
2022-11-14T09:44:23.909Z,100910.06
2022-11-14T09:46:52.795Z,100907.28
2022-11-14T09:49:38.296Z,100909.41
2022-11-14T09:52:09.370Z,100902.78
2022-11-14T09:54:39.640Z,100893.81
2022-11-14T09:57:07.872Z,100895.75
2022-11-14T09:59:33.440Z,100888.22
2022-11-14T10:02:00.771Z,100897.59
2022-11-14T10:04:34.269Z,100886.53
2022-11-14T10:10:01.562Z,100871.88
2022-11-14T10:12:33.785Z,100869.97
2022-11-14T10:15:03.822Z,100863.31
2022-11-14T10:17:49.254Z,100866.06
2022-11-14T10:25:53.232Z,100860.13
2022-11-14T10:28:29.481Z,100859.06
2022-11-14T10:30:59.682Z,100845.78
2022-11-14T10:36:01.699Z,100846.63
2022-11-14T10:38:29.607Z,100844.97
2022-11-14T10:40:58.485Z,100842.22
2022-11-14T10:43:25.528Z,100853.25
2022-11-14T10:45:56.704Z,100840.56
2022-11-14T10:48:29.958Z,100838.63
2022-11-14T10:51:04.839Z,100839.13
2022-11-14T10:53:35.251Z,100832.25
2022-11-14T10:56:05.361Z,100833.16
2022-11-14T10:58:32.032Z,100836.97
2022-11-14T11:01:23.844Z,100825.31
2022-11-14T11:03:49.461Z,100825.63
2022-11-14T11:06:30.031Z,100826.28
2022-11-14T11:09:15.526Z,100831.16
2022-11-14T11:11:41.084Z,100835.81
2022-11-14T11:14:08.879Z,100839.69
2022-11-14T11:16:34.444Z,100841.63
2022-11-14T11:19:19.900Z,100837.75
2022-11-14T11:21:46.885Z,100839.69
2022-11-14T11:24:12.482Z,100822.78
2022-11-14T11:26:38.018Z,100808.16
2022-11-14T11:29:13.992Z,100812.03
2022-11-14T11:31:49.416Z,100803.44
2022-11-14T11:34:15.423Z,100816.44
2022-11-14T11:36:42.860Z,100801.50
2022-11-14T11:39:09.358Z,100805.06
2022-11-14T11:42:07.657Z,100802.31
2022-11-14T11:44:20.776Z,100802.31
2022-11-14T11:46:47.934Z,100812.28
2022-11-14T11:49:15.283Z,100811.97
2022-11-14T11:51:40.816Z,100802.56
2022-11-14T11:54:09.469Z,100797.56
2022-11-14T11:56:35.085Z,100797.28
2022-11-14T11:59:13.927Z,100791.22
2022-11-14T12:01:39.471Z,100788.16
2022-11-14T12:04:05.095Z,100766.03
2022-11-14T12:06:32.326Z,100773.50
2022-11-14T12:09:02.877Z,100761.31
2022-11-14T12:11:29.536Z,100771.56
2022-11-14T12:14:15.039Z,100758.31
2022-11-14T12:17:00.478Z,100745.84
2022-11-14T12:19:36.664Z,100722.91
2022-11-14T12:22:22.129Z,100722.06
2022-11-14T12:24:51.340Z,100723.41
2022-11-14T12:27:20.883Z,100716.25
2022-11-14T12:29:49.141Z,100723.41
2022-11-14T12:32:17.331Z,100720.66
2022-11-14T12:34:44.682Z,100723.41
2022-11-14T12:37:13.983Z,100726.72
2022-11-14T12:39:39.582Z,100714.00
2022-11-14T12:42:06.058Z,100710.94
2022-11-14T12:44:33.826Z,100714.00
2022-11-14T12:52:43.380Z,100719.53
2022-11-14T12:58:16.929Z,100714.84
2022-11-14T13:00:46.152Z,100718.94
2022-11-14T13:03:22.590Z,100721.19
2022-11-14T13:05:53.183Z,100728.38
2022-11-14T13:08:21.623Z,100729.50
2022-11-14T13:10:47.167Z,100729.50
2022-11-14T13:13:33.658Z,100728.94
2022-11-14T13:16:20.891Z,100727.25
2022-11-14T13:19:26.299Z,100743.84
2022-11-14T13:22:11.732Z,100746.28
2022-11-14T13:24:57.240Z,100754.09
2022-11-14T13:27:45.127Z,100742.19
2022-11-14T13:30:11.204Z,100737.19
2022-11-14T13:32:43.844Z,100732.47
2022-11-14T13:35:29.333Z,100736.63
2022-11-14T13:38:14.767Z,100733.31
2022-11-14T13:41:00.196Z,100737.19
2022-11-14T13:43:44.352Z,100729.19
2022-11-14T13:46:14.368Z,100736.34
2022-11-14T13:48:59.817Z,100732.78
2022-11-14T13:54:16.341Z,100719.75
2022-11-14T13:57:03.545Z,100713.09
2022-11-14T13:59:47.671Z,100725.03
2022-11-14T14:02:33.138Z,100721.16
2022-11-14T14:05:20.033Z,100712.00
2022-11-14T14:08:03.124Z,100712.84
2022-11-14T14:10:48.567Z,100710.09
2022-11-14T14:13:32.476Z,100702.63
2022-11-14T14:16:08.500Z,100703.44
2022-11-14T14:18:53.909Z,100701.50
2022-11-14T14:21:24.640Z,100697.91
2022-11-14T14:26:43.959Z,100679.38
2022-11-14T14:29:25.603Z,100682.13
2022-11-14T14:31:51.149Z,100680.19
2022-11-14T14:34:21.374Z,100673.81
2022-11-14T14:36:49.156Z,100679.38
2022-11-14T14:39:19.094Z,100671.06
2022-11-14T14:41:44.648Z,100671.88
2022-11-14T14:44:31.271Z,100664.94
2022-11-14T14:46:57.155Z,100667.63
2022-11-14T14:49:24.491Z,100663.53
2022-11-14T14:51:54.418Z,100667.28
2022-11-14T14:54:25.079Z,100661.97
2022-11-14T14:56:52.803Z,100661.97
2022-11-14T14:59:20.087Z,100663.31
2022-11-14T15:01:45.754Z,100659.44
2022-11-14T15:04:12.657Z,100658.34
2022-11-14T15:06:38.449Z,100658.06
2022-11-14T15:09:20.036Z,100654.47
2022-11-14T15:11:46.601Z,100648.94
2022-11-14T15:14:12.711Z,100645.03
2022-11-14T15:16:38.251Z,100641.44
2022-11-14T15:19:03.822Z,100637.88
2022-11-14T15:21:29.471Z,100637.59
2022-11-14T15:24:14.992Z,100631.22
2022-11-14T15:26:41.269Z,100637.59
2022-11-14T15:29:10.512Z,100636.75
2022-11-14T15:31:36.148Z,100630.09
2022-11-14T15:34:03.372Z,100636.47
2022-11-14T15:36:28.925Z,100630.94
2022-11-14T15:39:03.108Z,100629.88
2022-11-14T15:41:29.535Z,100631.78
2022-11-14T15:44:00.965Z,100626.25
2022-11-14T15:49:09.531Z,100628.75
2022-11-14T15:51:43.785Z,100621.56
2022-11-14T15:54:25.436Z,100617.69
2022-11-14T15:56:51.517Z,100618.50
2022-11-14T15:59:17.123Z,100614.09
2022-11-14T16:01:43.208Z,100619.63
2022-11-14T16:04:10.519Z,100618.81
2022-11-14T16:06:36.071Z,100626.81
2022-11-14T16:09:01.623Z,100620.16
2022-11-14T16:11:27.169Z,100621.00
2022-11-14T16:13:52.728Z,100624.56
2022-11-14T16:16:18.273Z,100614.59
2022-11-14T16:18:43.829Z,100616.28
2022-11-14T16:21:10.598Z,100609.94
2022-11-14T16:23:36.149Z,100607.16
2022-11-14T16:26:01.697Z,100604.41
2022-11-14T16:28:28.199Z,100594.97
2022-11-14T16:30:54.028Z,100598.84
2022-11-14T16:33:19.584Z,100607.97
2022-11-14T16:35:45.128Z,100607.16
2022-11-14T16:38:11.624Z,100612.69
2022-11-14T16:40:37.166Z,100613.50
2022-11-14T16:43:02.714Z,100616.28
2022-11-14T16:45:28.277Z,100611.84
2022-11-14T16:47:53.843Z,100613.78
2022-11-14T16:50:19.384Z,100618.50
2022-11-14T16:52:44.937Z,100612.16
2022-11-14T16:55:10.655Z,100606.63
2022-11-14T16:57:36.428Z,100614.09
2022-11-14T17:00:06.736Z,100612.16
2022-11-14T17:02:32.291Z,100614.09
2022-11-14T17:04:57.857Z,100612.97
2022-11-14T17:07:23.430Z,100614.09
2022-11-14T17:09:49.036Z,100606.06
2022-11-14T17:12:14.576Z,100606.34
2022-11-14T17:14:40.128Z,100611.88
2022-11-14T17:17:05.699Z,100613.00
2022-11-14T17:19:31.257Z,100613.00
2022-11-14T17:21:56.796Z,100608.59
2022-11-14T17:24:25.037Z,100618.53
2022-11-14T17:26:54.164Z,100613.91
2022-11-14T17:29:19.780Z,100612.19
2022-11-14T17:31:47.174Z,100606.66
2022-11-14T17:34:12.896Z,100606.13
2022-11-14T17:36:38.447Z,100603.66
2022-11-14T17:39:03.995Z,100606.44
2022-11-14T17:41:29.792Z,100602.25
2022-11-14T17:43:55.962Z,100602.53
2022-11-14T17:46:21.613Z,100605.03
2022-11-14T17:48:47.173Z,100601.44
2022-11-14T17:51:12.962Z,100608.38
2022-11-14T17:53:38.665Z,100609.19
2022-11-14T17:56:04.248Z,100611.97
2022-11-14T17:58:30.629Z,100611.66
2022-11-14T18:00:58.100Z,100605.91
2022-11-14T18:03:23.856Z,100602.84
2022-11-14T18:05:49.402Z,100614.72
2022-11-14T18:08:14.956Z,100607.00
2022-11-14T18:10:40.598Z,100611.72
2022-11-14T18:13:06.156Z,100607.00
2022-11-14T18:15:31.791Z,100611.13
2022-11-14T18:17:57.381Z,100617.78
2022-11-14T18:20:23.050Z,100622.19
2022-11-14T18:22:48.607Z,100626.38
2022-11-14T18:25:14.160Z,100623.59
2022-11-14T18:27:39.781Z,100619.75
2022-11-14T18:30:20.156Z,100621.66
2022-11-14T18:32:51.053Z,100611.44
2022-11-14T18:35:16.600Z,100620.03
2022-11-14T18:37:42.147Z,100609.50
2022-11-14T18:40:12.102Z,100612.53
2022-11-14T18:42:41.378Z,100618.06
2022-11-14T18:45:07.075Z,100608.97
2022-11-14T18:47:32.634Z,100614.22
2022-11-14T18:49:59.171Z,100624.72
2022-11-14T18:52:24.728Z,100616.75
2022-11-14T18:54:50.276Z,100617.88
2022-11-14T18:57:15.832Z,100613.44
2022-11-14T18:59:41.377Z,100623.16
2022-11-14T19:02:07.700Z,100621.44
2022-11-14T19:04:33.295Z,100622.56
2022-11-14T19:06:58.935Z,100614.25
2022-11-14T19:09:24.603Z,100613.44
2022-11-14T19:12:10.052Z,100610.38
2022-11-14T19:14:36.019Z,100610.38
2022-11-14T19:17:01.816Z,100617.88
2022-11-14T19:19:27.360Z,100607.91
2022-11-14T19:21:52.954Z,100600.44
2022-11-14T19:24:18.494Z,100602.91
2022-11-14T19:26:44.087Z,100604.31
2022-11-14T19:29:12.482Z,100600.44
2022-11-14T19:31:38.247Z,100596.03
2022-11-14T19:34:04.605Z,100604.03
2022-11-14T19:36:58.129Z,100601.28
2022-11-14T19:39:15.799Z,100615.09
2022-11-14T19:41:41.319Z,100607.63
2022-11-14T19:44:07.055Z,100600.22
2022-11-14T19:46:34.818Z,100596.84
2022-11-14T19:49:00.412Z,100601.84
2022-11-14T19:51:26.343Z,100602.69
2022-11-14T19:53:52.459Z,100611.28
2022-11-14T19:56:18.448Z,100615.69
2022-11-14T19:58:44.692Z,100618.16
2022-11-14T20:01:12.119Z,100619.28
2022-11-14T20:03:37.814Z,100623.69
2022-11-14T20:06:03.817Z,100620.91
2022-11-14T20:08:29.372Z,100622.84
2022-11-14T20:10:55.688Z,100627.56
2022-11-14T20:13:21.242Z,100622.84
2022-11-14T20:15:46.778Z,100622.84
2022-11-14T20:18:12.329Z,100612.09
2022-11-14T20:20:37.876Z,100621.22
2022-11-14T20:23:03.428Z,100614.03
2022-11-14T20:25:28.981Z,100626.75
2022-11-14T20:27:54.532Z,100623.69
2022-11-14T20:30:20.113Z,100622.34
2022-11-14T20:32:45.663Z,100631.47
2022-11-14T20:35:11.206Z,100632.28
2022-11-14T20:37:36.760Z,100625.09
2022-11-14T20:40:02.312Z,100614.03
2022-11-14T20:42:27.876Z,100622.03
2022-11-14T20:44:53.416Z,100616.81
2022-11-14T20:47:19.039Z,100614.88
2022-11-14T20:49:46.051Z,100610.44
2022-11-14T20:52:11.606Z,100605.75
2022-11-14T20:54:37.147Z,100599.38
2022-11-14T20:57:02.699Z,100599.38
2022-11-14T20:59:28.243Z,100594.69
2022-11-14T21:01:53.894Z,100605.75
2022-11-14T21:04:19.575Z,100606.56
2022-11-14T21:06:45.184Z,100602.97
2022-11-14T21:09:10.794Z,100596.59
2022-11-14T21:11:36.339Z,100598.28
2022-11-14T21:14:03.469Z,100599.91
2022-11-14T21:16:30.675Z,100582.19
2022-11-14T21:18:56.236Z,100585.25
2022-11-14T21:21:23.336Z,100589.16
2022-11-14T21:23:48.960Z,100591.63
2022-11-14T21:26:15.439Z,100588.84
2022-11-14T21:28:42.144Z,100586.41
2022-11-14T21:31:27.638Z,100580.88
2022-11-14T21:33:53.908Z,100587.22
2022-11-14T21:39:05.212Z,100578.09
2022-11-14T21:41:30.906Z,100592.75
2022-11-14T21:43:57.784Z,100577.25
2022-11-14T21:46:23.567Z,100583.63
2022-11-14T21:48:49.415Z,100580.88
2022-11-14T21:51:16.975Z,100579.19
2022-11-14T21:53:42.884Z,100580.88
2022-11-14T21:56:10.107Z,100571.44
2022-11-14T21:58:35.688Z,100580.00
2022-11-14T22:01:03.095Z,100575.34
2022-11-14T22:03:48.548Z,100566.19
2022-11-14T22:06:14.108Z,100572.84
2022-11-14T22:08:39.647Z,100571.72
2022-11-14T22:11:05.187Z,100572.84
2022-11-14T22:13:31.091Z,100571.72
2022-11-14T22:15:57.027Z,100568.94
2022-11-14T22:18:22.625Z,100573.66
2022-11-14T22:20:48.171Z,100573.66
2022-11-14T22:23:14.284Z,100568.44
2022-11-14T22:25:39.923Z,100564.53
2022-11-14T22:28:05.477Z,100573.66
2022-11-14T22:30:31.023Z,100572.84
2022-11-14T22:32:58.124Z,100572.03
2022-11-14T22:35:23.672Z,100573.16
2022-11-14T22:37:49.226Z,100578.38
2022-11-14T22:40:14.792Z,100572.03
2022-11-14T22:42:40.352Z,100565.66
2022-11-14T22:45:06.166Z,100573.16
2022-11-14T22:47:31.714Z,100573.97
2022-11-14T22:49:57.256Z,100565.66
2022-11-14T22:52:22.813Z,100567.63
2022-11-14T22:54:48.355Z,100576.44
2022-11-14T22:57:13.911Z,100574.78
2022-11-14T22:59:39.458Z,100574.28
2022-11-14T23:02:05.011Z,100580.63
2022-11-14T23:04:30.564Z,100573.16
2022-11-14T23:06:56.193Z,100572.84
2022-11-14T23:09:21.746Z,100572.34
2022-11-14T23:11:47.304Z,100577.03
2022-11-14T23:14:13.591Z,100566.81
2022-11-14T23:16:39.156Z,100572.03
2022-11-14T23:19:04.752Z,100573.16
2022-11-14T23:21:32.271Z,100567.91
2022-11-14T23:23:58.888Z,100565.13
2022-11-14T23:26:24.822Z,100557.69
2022-11-14T23:28:50.432Z,100556.84
2022-11-14T23:31:19.224Z,100556.84
2022-11-14T23:33:45.717Z,100551.31
2022-11-14T23:36:11.266Z,100551.31
2022-11-14T23:38:36.810Z,100549.38
2022-11-14T23:41:02.367Z,100549.38
2022-11-14T23:43:28.387Z,100540.56
2022-11-14T23:45:54.163Z,100540.25
2022-11-14T23:48:19.880Z,100530.31
2022-11-14T23:50:48.590Z,100539.44
2022-11-14T23:53:14.144Z,100540.25
2022-11-14T23:55:41.189Z,100537.47
2022-11-14T23:58:07.068Z,100535.84
